createdAt,value
2016-07-07T00:00:21.807Z,12.77
2016-07-07T00:01:21.768Z,12.76
2016-07-07T00:02:21.853Z,12.73
2016-07-07T00:03:21.837Z,12.71
2016-07-07T00:04:21.763Z,12.76
2016-07-07T00:05:21.862Z,12.7
2016-07-07T00:06:21.786Z,12.77
2016-07-07T00:11:40.349Z,12.76
2016-07-07T00:11:47.244Z,12.62
2016-07-07T00:12:47.302Z,12.69
2016-07-07T00:13:47.324Z,12.62
2016-07-07T00:14:47.308Z,12.61
2016-07-07T00:15:47.231Z,12.69
2016-07-07T00:16:47.370Z,12.63
2016-07-07T00:17:47.286Z,12.59
2016-07-07T00:18:47.349Z,12.51
2016-07-07T00:19:47.317Z,12.53
2016-07-07T00:20:47.407Z,12.45
2016-07-07T00:21:47.366Z,12.51
2016-07-07T00:22:47.321Z,12.44
2016-07-07T00:23:47.320Z,12.48
2016-07-07T00:24:47.294Z,12.4
2016-07-07T00:25:47.371Z,12.37
2016-07-07T00:26:47.347Z,12.37
2016-07-07T00:27:47.377Z,12.36
2016-07-07T00:28:47.282Z,12.26
2016-07-07T00:29:47.416Z,12.28
2016-07-07T00:30:47.292Z,12.03
2016-07-07T00:31:47.354Z,12.13
2016-07-07T00:32:47.436Z,12
2016-07-07T00:33:47.338Z,12
2016-07-07T00:34:47.357Z,11.85
2016-07-07T00:35:47.312Z,11.82
2016-07-07T00:36:47.392Z,11.85
2016-07-07T00:37:47.490Z,11.89
2016-07-07T00:38:47.414Z,11.97
2016-07-07T00:39:47.388Z,11.84
2016-07-07T00:40:47.438Z,11.88
2016-07-07T00:41:47.478Z,11.89
2016-07-07T00:42:47.431Z,12.01
2016-07-07T00:43:47.385Z,12.11
2016-07-07T00:44:47.482Z,12.15
2016-07-07T00:45:47.458Z,12.07
2016-07-07T00:46:47.391Z,12.04
2016-07-07T00:47:47.499Z,12.03
2016-07-07T00:48:47.404Z,12.04
2016-07-07T00:49:47.397Z,11.94
2016-07-07T00:50:47.443Z,12.01
2016-07-07T00:51:47.455Z,11.88
2016-07-07T00:52:47.362Z,11.82
2016-07-07T00:53:47.369Z,11.79
2016-07-07T00:54:47.458Z,11.71
2016-07-07T00:55:47.415Z,11.61
2016-07-07T00:56:47.345Z,11.68
2016-07-07T00:57:47.346Z,11.64
2016-07-07T00:58:47.439Z,11.7
2016-07-07T00:59:47.390Z,11.63
2016-07-07T01:00:47.458Z,11.64
2016-07-07T01:01:47.393Z,11.63
2016-07-07T01:02:47.434Z,11.63
2016-07-07T01:03:47.514Z,11.73
2016-07-07T01:04:47.468Z,11.71
2016-07-07T01:05:47.524Z,11.71
2016-07-07T01:06:47.462Z,11.67
2016-07-07T01:07:47.519Z,11.64
2016-07-07T01:08:47.463Z,11.66
2016-07-07T01:09:47.402Z,11.68
2016-07-07T01:10:47.468Z,11.67
2016-07-07T01:11:47.489Z,11.64
2016-07-07T01:12:47.492Z,11.61
2016-07-07T01:13:47.466Z,11.57
2016-07-07T01:14:47.536Z,11.61
2016-07-07T01:15:47.539Z,11.6
2016-07-07T01:16:47.557Z,11.49
2016-07-07T01:17:47.484Z,11.56
2016-07-07T01:18:47.510Z,11.45
2016-07-07T01:19:47.436Z,11.42
2016-07-07T01:20:47.449Z,11.49
2016-07-07T01:21:47.491Z,11.39
2016-07-07T01:22:47.543Z,11.34
2016-07-07T01:23:47.528Z,11.27
2016-07-07T01:24:47.525Z,11.38
2016-07-07T01:25:47.446Z,11.35
2016-07-07T01:26:47.491Z,11.35
2016-07-07T01:27:47.532Z,11.27
2016-07-07T01:28:47.413Z,11.31
2016-07-07T01:29:47.497Z,11.18
2016-07-07T01:30:47.557Z,11.16
2016-07-07T01:31:47.614Z,11.18
2016-07-07T01:32:47.610Z,11.15
2016-07-07T01:33:47.477Z,11.2
2016-07-07T01:34:47.523Z,11.16
2016-07-07T01:35:47.524Z,11.28
2016-07-07T01:36:47.537Z,11.39
2016-07-07T01:37:47.541Z,11.42
2016-07-07T01:38:47.543Z,11.3
2016-07-07T01:39:47.592Z,11.38
2016-07-07T01:40:47.573Z,11.48
2016-07-07T01:41:47.610Z,11.27
2016-07-07T01:42:47.590Z,11.28
2016-07-07T01:43:47.626Z,11.27
2016-07-07T01:44:47.638Z,11.24
2016-07-07T01:45:47.645Z,11.23
2016-07-07T01:46:47.653Z,11.1
2016-07-07T01:47:47.632Z,11.08
2016-07-07T01:48:47.640Z,11.15
2016-07-07T01:49:47.562Z,11.09
2016-07-07T01:50:47.605Z,11.16
2016-07-07T01:51:47.526Z,11.13
2016-07-07T01:52:47.539Z,11.03
2016-07-07T01:53:47.626Z,11.03
2016-07-07T01:54:47.570Z,11.06
2016-07-07T01:55:47.615Z,11.15
2016-07-07T01:56:47.649Z,11.03
2016-07-07T01:57:47.603Z,11.03
2016-07-07T01:58:47.656Z,11
2016-07-07T01:59:47.669Z,10.98
2016-07-07T02:00:47.608Z,10.97
2016-07-07T02:01:47.674Z,10.92
2016-07-07T02:02:47.631Z,10.92
2016-07-07T02:03:47.706Z,10.9
2016-07-07T02:04:47.675Z,10.88
2016-07-07T02:05:47.643Z,10.87
2016-07-07T02:06:47.564Z,10.87
2016-07-07T02:07:47.548Z,10.88
2016-07-07T02:08:47.647Z,10.92
2016-07-07T02:09:47.644Z,10.85
2016-07-07T02:10:47.560Z,10.85
2016-07-07T02:11:47.644Z,10.87
2016-07-07T02:12:47.628Z,10.79
2016-07-07T02:13:47.602Z,10.72
2016-07-07T02:14:47.639Z,10.7
2016-07-07T02:15:47.625Z,10.57
2016-07-07T02:16:47.590Z,10.55
2016-07-07T02:17:47.655Z,10.47
2016-07-07T02:18:47.596Z,10.44
2016-07-07T02:19:47.688Z,10.35
2016-07-07T02:20:47.652Z,10.32
2016-07-07T02:21:47.737Z,10.44
2016-07-07T02:22:47.736Z,10.33
2016-07-07T02:23:47.638Z,10.41
2016-07-07T02:24:47.678Z,10.38
2016-07-07T02:25:47.734Z,10.41
2016-07-07T02:26:47.672Z,10.41
2016-07-07T02:27:47.717Z,10.54
2016-07-07T02:28:47.629Z,10.39
2016-07-07T02:29:47.602Z,10.33
2016-07-07T02:30:47.698Z,10.41
2016-07-07T02:31:47.706Z,10.31
2016-07-07T02:32:47.645Z,10.25
2016-07-07T02:33:47.710Z,10.28
2016-07-07T02:34:47.741Z,10.25
2016-07-07T02:35:47.782Z,10.2
2016-07-07T02:36:47.693Z,10.11
2016-07-07T02:37:47.729Z,10.14
2016-07-07T02:38:47.693Z,10.14
2016-07-07T02:39:47.736Z,10.15
2016-07-07T02:40:47.700Z,10.2
2016-07-07T02:41:47.740Z,10.28
2016-07-07T02:42:47.705Z,10.32
2016-07-07T02:43:47.639Z,10.33
2016-07-07T02:44:47.705Z,10.52
2016-07-07T02:45:47.802Z,10.52
2016-07-07T02:46:47.782Z,10.47
2016-07-07T02:47:47.790Z,10.58
2016-07-07T02:48:47.727Z,10.47
2016-07-07T02:49:47.684Z,10.47
2016-07-07T02:50:47.649Z,10.39
2016-07-07T02:51:47.807Z,10.35
2016-07-07T02:52:47.754Z,10.31
2016-07-07T02:53:47.814Z,10.26
2016-07-07T02:54:47.681Z,10.2
2016-07-07T02:55:47.850Z,10.2
2016-07-07T02:56:47.756Z,10.18
2016-07-07T02:57:47.706Z,10.21
2016-07-07T02:58:47.759Z,10.2
2016-07-07T02:59:47.828Z,10.26
2016-07-07T03:00:47.857Z,10.17
2016-07-07T03:01:47.726Z,10.21
2016-07-07T03:02:47.848Z,10.26
2016-07-07T03:03:47.805Z,10.29
2016-07-07T03:04:47.817Z,10.35
2016-07-07T03:05:47.818Z,10.44
2016-07-07T03:06:47.844Z,10.52
2016-07-07T03:07:47.737Z,10.61
2016-07-07T03:08:47.874Z,10.54
2016-07-07T03:09:47.836Z,10.29
2016-07-07T03:10:47.752Z,10.35
2016-07-07T03:11:47.797Z,10.31
2016-07-07T03:12:47.824Z,10.28
2016-07-07T03:13:47.839Z,10.28
2016-07-07T03:14:47.755Z,10.25
2016-07-07T03:15:47.845Z,10.26
2016-07-07T03:16:47.861Z,10.25
2016-07-07T03:17:47.800Z,10.26
2016-07-07T03:18:47.823Z,10.31
2016-07-07T03:19:47.897Z,10.21
2016-07-07T03:20:47.818Z,10.35
2016-07-07T03:21:47.895Z,10.28
2016-07-07T03:22:47.899Z,10.36
2016-07-07T03:23:47.766Z,10.26
2016-07-07T03:24:47.820Z,10.31
2016-07-07T03:25:47.844Z,10.23
2016-07-07T03:26:47.789Z,10.28
2016-07-07T03:27:47.805Z,10.17
2016-07-07T03:28:47.835Z,10.15
2016-07-07T03:29:47.804Z,10.17
2016-07-07T03:30:47.880Z,10.28
2016-07-07T03:31:47.924Z,10.23
2016-07-07T03:32:47.843Z,10.28
2016-07-07T03:33:47.838Z,10.17
2016-07-07T03:34:47.839Z,10.25
2016-07-07T03:35:47.885Z,10.13
2016-07-07T03:36:47.810Z,10.15
2016-07-07T03:37:47.910Z,10.2
2016-07-07T03:38:47.944Z,10.15
2016-07-07T03:39:47.868Z,10.02
2016-07-07T03:40:47.955Z,10.07
2016-07-07T03:41:47.823Z,9.98
2016-07-07T03:42:47.921Z,9.85
2016-07-07T03:43:47.887Z,9.95
2016-07-07T03:44:47.963Z,9.89
2016-07-07T03:45:47.848Z,10.03
2016-07-07T03:46:47.922Z,10.21
2016-07-07T03:47:47.969Z,10.44
2016-07-07T03:48:47.983Z,10.55
2016-07-07T03:49:47.896Z,10.66
2016-07-07T03:50:47.832Z,10.63
2016-07-07T03:51:47.879Z,10.59
2016-07-07T03:52:47.940Z,10.63
2016-07-07T03:53:47.887Z,10.52
2016-07-07T03:54:47.978Z,10.51
2016-07-07T03:55:47.889Z,10.51
2016-07-07T03:56:47.906Z,10.36
2016-07-07T03:57:47.936Z,10.29
2016-07-07T03:58:48.001Z,10.32
2016-07-07T03:59:47.867Z,10.32
2016-07-07T04:00:47.923Z,10.49
2016-07-07T04:01:47.959Z,10.55
2016-07-07T04:02:47.928Z,10.73
2016-07-07T04:03:47.928Z,10.72
2016-07-07T04:04:48.015Z,10.9
2016-07-07T04:05:48.013Z,10.84
2016-07-07T04:06:47.933Z,10.91
2016-07-07T04:07:47.874Z,10.94
2016-07-07T04:08:47.951Z,10.9
2016-07-07T04:09:47.897Z,10.94
2016-07-07T04:10:47.902Z,10.88
2016-07-07T04:11:47.880Z,10.84
2016-07-07T04:12:47.883Z,10.8
2016-07-07T04:13:47.879Z,10.75
2016-07-07T04:14:47.995Z,10.76
2016-07-07T04:15:47.953Z,10.73
2016-07-07T04:16:47.924Z,10.72
2016-07-07T04:17:47.969Z,10.75
2016-07-07T04:18:47.962Z,10.85
2016-07-07T04:19:47.976Z,10.94
2016-07-07T04:20:48.009Z,11.02
2016-07-07T04:21:47.972Z,11
2016-07-07T04:22:47.982Z,10.92
2016-07-07T04:23:47.978Z,11.05
2016-07-07T04:24:48.010Z,10.92
2016-07-07T04:25:48.065Z,10.94
2016-07-07T04:26:47.956Z,10.97
2016-07-07T04:27:47.936Z,11.06
2016-07-07T04:28:48.028Z,10.94
2016-07-07T04:29:47.978Z,11.08
2016-07-07T04:30:48.035Z,11.08
2016-07-07T04:31:47.944Z,10.97
2016-07-07T04:32:47.948Z,11.1
2016-07-07T04:33:48.072Z,11.21
2016-07-07T04:34:48.018Z,11.26
2016-07-07T04:35:48.052Z,11.21
2016-07-07T04:36:47.983Z,11.18
2016-07-07T04:37:48.099Z,11.12
2016-07-07T04:38:48.060Z,11.15
2016-07-07T04:39:48.052Z,11.33
2016-07-07T04:40:47.981Z,11.51
2016-07-07T04:41:48.032Z,11.63
2016-07-07T04:42:48.127Z,11.68
2016-07-07T04:43:48.096Z,11.7
2016-07-07T04:44:48.110Z,11.73
2016-07-07T04:45:48.069Z,11.79
2016-07-07T04:47:48.049Z,11.78
2016-07-07T04:48:48.076Z,11.86
2016-07-07T04:49:47.965Z,11.85
2016-07-07T04:50:48.052Z,11.85
2016-07-07T04:51:48.074Z,11.89
2016-07-07T04:52:48.070Z,11.88
2016-07-07T04:53:47.993Z,11.94
2016-07-07T04:54:48.144Z,12
2016-07-07T04:55:48.131Z,12.07
2016-07-07T04:56:48.092Z,12.23
2016-07-07T04:57:48.143Z,12.23
2016-07-07T04:58:48.104Z,12.18
2016-07-07T04:59:48.043Z,12.29
2016-07-07T05:00:48.107Z,12.25
2016-07-07T05:01:48.115Z,12.4
2016-07-07T05:02:48.203Z,12.36
2016-07-07T05:03:48.051Z,12.41
2016-07-07T05:04:48.134Z,12.38
2016-07-07T05:05:48.169Z,12.43
2016-07-07T05:06:48.146Z,12.45
2016-07-07T05:07:48.077Z,12.51
2016-07-07T05:08:48.120Z,12.52
2016-07-07T05:09:48.118Z,12.58
2016-07-07T05:10:48.060Z,12.65
2016-07-07T05:11:48.204Z,12.61
2016-07-07T05:12:48.036Z,12.53
2016-07-07T05:13:48.101Z,12.58
2016-07-07T05:14:48.199Z,12.65
2016-07-07T05:15:48.193Z,12.59
2016-07-07T05:16:48.119Z,12.59
2016-07-07T05:17:48.159Z,12.63
2016-07-07T05:18:48.077Z,12.61
2016-07-07T05:19:48.218Z,12.63
2016-07-07T05:20:48.134Z,12.74
2016-07-07T05:21:48.133Z,12.77
2016-07-07T05:22:48.061Z,12.77
2016-07-07T05:23:48.188Z,12.89
2016-07-07T05:24:48.055Z,12.88
2016-07-07T05:25:48.181Z,12.76
2016-07-07T05:26:48.113Z,12.88
2016-07-07T05:27:48.226Z,12.88
2016-07-07T05:28:48.155Z,12.88
2016-07-07T05:29:48.222Z,12.99
2016-07-07T05:30:48.196Z,13.14
2016-07-07T05:31:48.158Z,13.16
2016-07-07T05:32:48.196Z,13.17
2016-07-07T05:33:48.187Z,13.17
2016-07-07T05:34:48.242Z,13.36
2016-07-07T05:35:48.272Z,13.29
2016-07-07T05:36:48.181Z,13.31
2016-07-07T05:37:48.198Z,13.29
2016-07-07T05:38:48.203Z,13.29
2016-07-07T05:39:48.253Z,13.21
2016-07-07T05:40:48.208Z,13.2
2016-07-07T05:41:48.265Z,13.29
2016-07-07T05:42:48.281Z,13.35
2016-07-07T05:43:48.271Z,13.37
2016-07-07T05:44:48.254Z,13.48
2016-07-07T05:45:48.283Z,13.47
2016-07-07T05:46:48.215Z,13.32
2016-07-07T05:47:48.289Z,13.37
2016-07-07T05:48:48.215Z,13.42
2016-07-07T05:49:48.295Z,13.42
2016-07-07T05:50:48.293Z,13.36
2016-07-07T05:51:48.298Z,13.48
2016-07-07T05:52:48.181Z,13.6
2016-07-07T05:53:48.240Z,13.48
2016-07-07T05:54:48.317Z,13.39
2016-07-07T05:55:48.332Z,13.51
2016-07-07T05:56:48.193Z,13.65
2016-07-07T05:57:48.301Z,13.62
2016-07-07T05:58:48.359Z,13.62
2016-07-07T05:59:48.313Z,13.87
2016-07-07T06:00:48.258Z,13.95
2016-07-07T06:01:48.382Z,13.95
2016-07-07T06:02:48.278Z,14.11
2016-07-07T06:03:48.268Z,14.11
2016-07-07T06:04:48.334Z,14.05
2016-07-07T06:05:48.294Z,14.01
2016-07-07T06:06:48.284Z,13.95
2016-07-07T06:07:48.344Z,13.91
2016-07-07T06:08:48.269Z,14.12
2016-07-07T06:09:48.273Z,14.21
2016-07-07T06:10:48.278Z,14.24
2016-07-07T06:11:48.267Z,14.23
2016-07-07T06:12:48.231Z,14.19
2016-07-07T06:13:48.303Z,14.23
2016-07-07T06:14:48.280Z,14.23
2016-07-07T06:15:48.297Z,14.31
2016-07-07T06:16:48.416Z,14.42
2016-07-07T06:17:48.350Z,14.33
2016-07-07T06:18:48.327Z,14.77
2016-07-07T06:19:48.299Z,14.57
2016-07-07T06:20:48.421Z,14.75
2016-07-07T06:21:48.227Z,14.7
2016-07-07T06:22:50.889Z,14.86
2016-07-07T06:23:48.345Z,15.18
2016-07-07T06:24:48.336Z,15.15
2016-07-07T06:25:48.458Z,15.33
2016-07-07T06:26:48.356Z,15.23
2016-07-07T06:27:49.057Z,15.41
2016-07-07T06:28:48.400Z,15.81
2016-07-07T06:29:48.331Z,15.73
2016-07-07T06:30:48.401Z,15.71
2016-07-07T06:31:48.427Z,15.91
2016-07-07T06:32:48.326Z,16.17
2016-07-07T06:33:48.341Z,15.91
2016-07-07T06:34:48.338Z,15.31
2016-07-07T06:35:48.290Z,15.23
2016-07-07T06:36:48.364Z,15.6
2016-07-07T06:37:48.440Z,15.84
2016-07-07T06:38:48.289Z,15.7
2016-07-07T06:39:48.384Z,15.26
2016-07-07T06:40:48.528Z,15.07
2016-07-07T06:41:48.484Z,15.02
2016-07-07T06:42:48.426Z,15.02
2016-07-07T06:43:48.462Z,15.02
2016-07-07T06:44:48.322Z,15.08
2016-07-07T06:45:48.385Z,15
2016-07-07T06:46:49.655Z,15.16
2016-07-07T06:47:48.442Z,15.34
2016-07-07T06:48:48.344Z,15.47
2016-07-07T06:49:48.442Z,15.37
2016-07-07T06:50:48.486Z,15.23
2016-07-07T06:51:48.427Z,15.25
2016-07-07T06:52:48.503Z,15.38
2016-07-07T06:53:48.366Z,15.43
2016-07-07T06:54:48.522Z,15.55
2016-07-07T06:55:48.479Z,15.6
2016-07-07T06:56:48.485Z,15.71
2016-07-07T06:57:48.535Z,15.68
2016-07-07T06:58:48.482Z,15.73
2016-07-07T06:59:48.435Z,15.6
2016-07-07T07:00:48.382Z,15.45
2016-07-07T07:01:48.437Z,15.56
2016-07-07T07:02:48.682Z,15.56
2016-07-07T07:03:48.416Z,15.51
2016-07-07T07:04:48.397Z,15.56
2016-07-07T07:05:48.449Z,15.75
2016-07-07T07:06:48.460Z,16.02
2016-07-07T07:07:48.583Z,16.4
2016-07-07T07:08:48.510Z,16.48
2016-07-07T07:09:48.462Z,16.16
2016-07-07T07:10:48.471Z,16.17
2016-07-07T07:11:48.477Z,16.36
2016-07-07T07:12:49.349Z,16.39
2016-07-07T07:13:48.460Z,16.69
2016-07-07T07:14:48.461Z,16.84
2016-07-07T07:15:48.518Z,16.55
2016-07-07T07:16:48.589Z,16.72
2016-07-07T07:17:48.538Z,16.76
2016-07-07T07:18:48.513Z,16.42
2016-07-07T07:19:48.549Z,16.42
2016-07-07T07:20:48.508Z,16.69
2016-07-07T07:21:48.491Z,16.74
2016-07-07T07:22:48.587Z,16.39
2016-07-07T07:23:48.415Z,16.37
2016-07-07T07:24:48.520Z,16.29
2016-07-07T07:25:48.559Z,16.21
2016-07-07T07:26:48.595Z,16.36
2016-07-07T07:27:48.961Z,16.22
2016-07-07T07:28:48.609Z,16.26
2016-07-07T07:29:48.541Z,16.44
2016-07-07T07:30:48.634Z,16.57
2016-07-07T07:31:48.431Z,16.65
2016-07-07T07:32:48.519Z,16.39
2016-07-07T07:33:48.547Z,16.44
2016-07-07T07:34:48.542Z,16.7
2016-07-07T07:35:48.607Z,16.91
2016-07-07T07:36:48.565Z,17.03
2016-07-07T07:37:48.613Z,16.77
2016-07-07T07:38:48.450Z,16.72
2016-07-07T07:39:48.538Z,17.07
2016-07-07T07:40:48.587Z,17.4
2016-07-07T07:41:48.525Z,17.65
2016-07-07T07:42:48.575Z,17.28
2016-07-07T07:43:48.636Z,17.05
2016-07-07T07:44:48.664Z,17.42
2016-07-07T07:45:48.751Z,17.62
2016-07-07T07:46:48.867Z,17.5
2016-07-07T07:47:48.584Z,17.43
2016-07-07T07:48:48.596Z,17.63
2016-07-07T07:49:50.258Z,17.21
2016-07-07T07:50:48.592Z,17.09
2016-07-07T07:51:48.709Z,17.39
2016-07-07T07:52:48.697Z,17.5
2016-07-07T07:53:48.599Z,17.94
2016-07-07T07:54:48.658Z,17.86
2016-07-07T07:55:48.696Z,17.94
2016-07-07T07:56:48.764Z,18.17
2016-07-07T07:57:48.637Z,18.49
2016-07-07T07:58:48.708Z,18.63
2016-07-07T07:59:48.674Z,18.72
2016-07-07T08:00:48.687Z,18.57
2016-07-07T08:01:48.757Z,18.29
2016-07-07T08:02:48.778Z,18.61
2016-07-07T08:03:48.698Z,18.78
2016-07-07T08:04:48.642Z,18.76
2016-07-07T08:05:48.669Z,18.69
2016-07-07T08:06:48.669Z,18.27
2016-07-07T08:07:48.712Z,18.6
2016-07-07T08:08:48.735Z,18.84
2016-07-07T08:09:48.733Z,19.24
2016-07-07T08:10:48.581Z,18.84
2016-07-07T08:11:48.828Z,18.29
2016-07-07T08:12:48.767Z,18.03
2016-07-07T08:13:49.226Z,18.05
2016-07-07T08:14:48.737Z,18.47
2016-07-07T08:15:48.662Z,18.51
2016-07-07T08:16:48.724Z,18.79
2016-07-07T08:17:48.768Z,19.23
2016-07-07T08:18:48.738Z,20.02
2016-07-07T08:19:48.650Z,19.45
2016-07-07T08:20:48.887Z,19.2
2016-07-07T08:21:48.781Z,19.13
2016-07-07T08:22:48.814Z,19.47
2016-07-07T08:23:48.733Z,19.55
2016-07-07T08:24:48.679Z,18.82
2016-07-07T08:25:48.771Z,18.57
2016-07-07T08:26:48.782Z,18.26
2016-07-07T08:27:48.821Z,18.51
2016-07-07T08:28:48.739Z,18.36
2016-07-07T08:29:48.992Z,18.75
2016-07-07T08:30:48.854Z,19
2016-07-07T08:31:48.807Z,19.27
2016-07-07T08:32:48.854Z,19.53
2016-07-07T08:35:03.772Z,20.38
2016-07-07T08:36:03.856Z,20.25
2016-07-07T08:37:03.774Z,19.46
2016-07-07T08:38:03.763Z,19.45
2016-07-07T08:39:03.815Z,19.47
2016-07-07T08:40:03.833Z,19.02
2016-07-07T08:41:03.778Z,18.71
2016-07-07T08:42:04.574Z,18.76
2016-07-07T08:43:03.845Z,19.06
2016-07-07T08:44:04.011Z,19.16
2016-07-07T08:45:04.652Z,19.24
2016-07-07T08:46:03.851Z,19.37
2016-07-07T08:47:03.809Z,19.57
2016-07-07T08:48:08.173Z,19.86
2016-07-07T08:49:04.058Z,20.25
2016-07-07T08:50:03.771Z,20.49
2016-07-07T08:51:03.922Z,21.12
2016-07-07T08:52:03.830Z,21.13
2016-07-07T08:53:03.933Z,20.64
2016-07-07T08:54:03.923Z,19.8
2016-07-07T08:55:03.805Z,19.98
2016-07-07T08:56:03.793Z,20.38
2016-07-07T08:57:03.914Z,20.16
2016-07-07T08:58:03.923Z,20.3
2016-07-07T08:59:03.789Z,20.27
2016-07-07T09:00:03.934Z,20.04
2016-07-07T09:01:03.984Z,20.01
2016-07-07T09:02:03.880Z,20.26
2016-07-07T09:03:03.915Z,20.32
2016-07-07T09:04:03.843Z,20.3
2016-07-07T09:05:04.757Z,19.67
2016-07-07T09:06:04.834Z,19.35
2016-07-07T09:07:03.880Z,19.27
2016-07-07T09:08:05.090Z,19.79
2016-07-07T09:09:03.916Z,20.41
2016-07-07T09:10:04.449Z,19.68
2016-07-07T09:11:03.897Z,19.57
2016-07-07T09:12:04.541Z,19.35
2016-07-07T09:13:04.993Z,19.38
2016-07-07T09:14:03.900Z,19.86
2016-07-07T09:15:04.198Z,20.35
2016-07-07T09:16:04.219Z,20.48
2016-07-07T09:17:03.962Z,19.97
2016-07-07T09:18:03.895Z,19.68
2016-07-07T09:19:03.925Z,20.1
2016-07-07T09:20:03.874Z,20.58
2016-07-07T09:21:03.859Z,21.21
2016-07-07T09:22:04.037Z,21.49
2016-07-07T09:23:04.088Z,21.99
2016-07-07T09:24:03.937Z,21.19
2016-07-07T09:25:04.047Z,21.08
2016-07-07T09:26:04.132Z,20.38
2016-07-07T09:27:04.041Z,20.11
2016-07-07T09:28:03.982Z,20.16
2016-07-07T09:29:03.990Z,20.38
2016-07-07T09:30:03.912Z,20.64
2016-07-07T09:31:03.951Z,20.83
2016-07-07T09:32:03.926Z,20.88
2016-07-07T09:33:03.859Z,20.97
2016-07-07T09:34:03.994Z,21.13
2016-07-07T09:35:04.054Z,21.38
2016-07-07T09:36:03.947Z,22
2016-07-07T09:37:04.017Z,22.12
2016-07-07T09:38:03.960Z,22.3
2016-07-07T09:39:03.908Z,21.16
2016-07-07T09:40:03.933Z,21.33
2016-07-07T09:41:03.947Z,21.76
2016-07-07T09:42:03.981Z,22.05
2016-07-07T09:43:03.948Z,22.24
2016-07-07T09:44:03.915Z,22.64
2016-07-07T09:45:04.040Z,22.76
2016-07-07T09:46:03.941Z,21.96
2016-07-07T09:47:04.017Z,22.11
2016-07-07T09:48:04.713Z,22.61
2016-07-07T09:49:03.982Z,23.01
2016-07-07T09:50:04.141Z,22.59
2016-07-07T09:51:04.023Z,21.82
2016-07-07T09:52:04.044Z,21.82
2016-07-07T09:53:04.296Z,22.11
2016-07-07T09:54:04.421Z,22.15
2016-07-07T09:55:03.957Z,21.93
2016-07-07T09:56:03.994Z,21.56
2016-07-07T09:57:04.055Z,21.68
2016-07-07T09:58:03.976Z,22.04
2016-07-07T09:59:04.010Z,22.39
2016-07-07T10:00:04.078Z,22.78
2016-07-07T10:01:04.125Z,22.51
2016-07-07T10:02:04.064Z,22.2
2016-07-07T10:03:04.122Z,22.02
2016-07-07T10:04:04.075Z,22.07
2016-07-07T10:05:04.080Z,22.27
2016-07-07T10:06:04.114Z,22.61
2016-07-07T10:07:04.205Z,22.82
2016-07-07T10:08:04.046Z,23.14
2016-07-07T10:09:04.015Z,23.37
2016-07-07T10:10:04.132Z,23.82
2016-07-07T10:11:04.110Z,23.45
2016-07-07T10:12:04.103Z,22.86
2016-07-07T10:13:04.055Z,22.61
2016-07-07T10:14:04.157Z,22.89
2016-07-07T10:15:04.083Z,22.76
2016-07-07T10:16:04.200Z,23.12
2016-07-07T10:17:04.117Z,23.34
2016-07-07T10:18:04.154Z,23.35
2016-07-07T10:19:04.075Z,23.26
2016-07-07T10:20:03.991Z,22.75
2016-07-07T10:21:04.124Z,22.63
2016-07-07T10:22:04.066Z,21.89
2016-07-07T10:23:04.071Z,21.85
2016-07-07T10:24:04.146Z,21.97
2016-07-07T10:25:04.123Z,22.3
2016-07-07T10:26:04.110Z,22.91
2016-07-07T10:27:04.143Z,23.19
2016-07-07T10:28:04.140Z,23.22
2016-07-07T10:29:04.083Z,23.6
2016-07-07T10:30:04.144Z,24.12
2016-07-07T10:31:04.080Z,22.85
2016-07-07T10:32:04.149Z,22.38
2016-07-07T10:33:04.194Z,22.27
2016-07-07T10:34:04.046Z,22.52
2016-07-07T10:35:04.185Z,22.67
2016-07-07T10:36:04.304Z,23.24
2016-07-07T10:37:09.856Z,23.63
2016-07-07T10:38:04.149Z,24.22
2016-07-07T10:39:04.171Z,24.09
2016-07-07T10:40:04.289Z,23.6
2016-07-07T10:41:04.104Z,23.53
2016-07-07T10:42:04.121Z,23.28
2016-07-07T10:43:04.161Z,23.25
2016-07-07T10:44:04.187Z,23.48
2016-07-07T10:45:04.297Z,23.48
2016-07-07T10:46:04.189Z,23.52
2016-07-07T10:47:04.171Z,23.59
2016-07-07T10:48:04.249Z,22.84
2016-07-07T10:49:04.775Z,22.15
2016-07-07T10:50:04.141Z,22.48
2016-07-07T10:51:04.232Z,22.2
2016-07-07T10:52:04.081Z,22.52
2016-07-07T10:53:04.160Z,23.14
2016-07-07T10:54:04.203Z,24
2016-07-07T10:55:04.238Z,22.08
2016-07-07T10:56:04.082Z,20.67
2016-07-07T10:57:06.546Z,21.22
2016-07-07T10:58:04.237Z,22.49
2016-07-07T10:59:04.289Z,23.12
2016-07-07T11:00:04.250Z,22.99
2016-07-07T11:01:06.758Z,23.32
2016-07-07T11:02:04.219Z,23.84
2016-07-07T11:03:04.160Z,24.09
2016-07-07T11:04:04.335Z,24
2016-07-07T11:05:04.268Z,24.37
2016-07-07T11:06:04.317Z,23.38
2016-07-07T11:07:05.373Z,23.34
2016-07-07T11:08:04.713Z,23.99
2016-07-07T11:09:04.605Z,24.46
2016-07-07T11:10:04.363Z,24.51
2016-07-07T11:11:04.518Z,22.92
2016-07-07T11:12:04.355Z,22.2
2016-07-07T11:13:06.477Z,21.82
2016-07-07T11:14:05.379Z,22.11
2016-07-07T11:15:06.908Z,21.58
2016-07-07T11:16:04.803Z,21.53
2016-07-07T11:17:04.645Z,21.7
2016-07-07T11:18:04.437Z,22.38
2016-07-07T11:19:04.575Z,23.34
2016-07-07T11:20:04.525Z,23.67
2016-07-07T11:21:04.321Z,24.07
2016-07-07T11:22:04.417Z,24.15
2016-07-07T11:23:04.303Z,24.34
2016-07-07T11:24:04.260Z,24.59
2016-07-07T11:25:04.280Z,25.12
2016-07-07T11:26:04.210Z,24.61
2016-07-07T11:27:04.419Z,23.55
2016-07-07T11:28:04.341Z,23.57
2016-07-07T11:29:04.365Z,24.14
2016-07-07T11:30:04.455Z,24.32
2016-07-07T11:31:04.314Z,24.21
2016-07-07T11:32:04.365Z,24.3
2016-07-07T11:33:04.537Z,24.21
2016-07-07T11:34:06.389Z,23.78
2016-07-07T11:35:05.580Z,24.33
2016-07-07T11:36:04.951Z,24.69
2016-07-07T11:37:04.411Z,24.75
2016-07-07T11:38:05.235Z,24.71
2016-07-07T11:39:04.515Z,24.96
2016-07-07T11:40:04.324Z,25.64
2016-07-07T11:41:04.364Z,26.2
2016-07-07T11:42:05.218Z,26.35
2016-07-07T11:43:04.728Z,26.3
2016-07-07T11:44:04.292Z,24.4
2016-07-07T11:45:04.358Z,24.15
2016-07-07T11:46:04.360Z,23.97
2016-07-07T11:47:04.288Z,24.36
2016-07-07T11:48:04.343Z,24.97
2016-07-07T11:49:04.253Z,25.27
2016-07-07T11:50:04.413Z,25.12
2016-07-07T11:51:04.304Z,24.4
2016-07-07T11:52:04.239Z,24.22
2016-07-07T11:53:04.610Z,23.5
2016-07-07T11:54:04.452Z,23.71
2016-07-07T11:55:04.405Z,24.32
2016-07-07T11:56:05.079Z,25.12
2016-07-07T11:57:04.437Z,25.39
2016-07-07T11:58:04.389Z,25.34
2016-07-07T11:59:04.388Z,25.02
2016-07-07T12:00:04.411Z,25.27
2016-07-07T12:01:04.539Z,25.15
2016-07-07T12:02:04.464Z,24.66
2016-07-07T12:03:04.407Z,24.22
2016-07-07T12:04:04.439Z,23.93
2016-07-07T12:05:04.418Z,24.71
2016-07-07T12:06:04.285Z,24.77
2016-07-07T12:07:04.337Z,25.04
2016-07-07T12:08:04.742Z,25.11
2016-07-07T12:09:04.370Z,25.51
2016-07-07T12:10:04.427Z,25.47
2016-07-07T12:11:05.459Z,25.64
2016-07-07T12:12:05.207Z,25.6
2016-07-07T12:13:04.636Z,24.4
2016-07-07T12:14:04.534Z,24.56
2016-07-07T12:15:04.454Z,24.69
2016-07-07T12:16:04.489Z,24.42
2016-07-07T12:17:05.231Z,23.72
2016-07-07T12:18:04.332Z,22.82
2016-07-07T12:19:04.344Z,22.84
2016-07-07T12:20:04.488Z,22.89
2016-07-07T12:21:04.416Z,24.03
2016-07-07T12:22:04.453Z,24.78
2016-07-07T12:23:04.504Z,24.93
2016-07-07T12:24:04.431Z,25.19
2016-07-07T12:25:04.571Z,25.34
2016-07-07T12:26:04.714Z,24.86
2016-07-07T12:27:05.113Z,24.66
2016-07-07T12:28:04.502Z,24.7
2016-07-07T12:29:04.439Z,24.17
2016-07-07T12:30:05.234Z,24.85
2016-07-07T12:31:04.616Z,24.89
2016-07-07T12:32:05.196Z,25.24
2016-07-07T12:33:04.522Z,26.12
2016-07-07T12:34:05.087Z,25.66
2016-07-07T12:35:04.592Z,24.93
2016-07-07T12:36:04.481Z,25.01
2016-07-07T12:37:04.573Z,24.75
2016-07-07T12:38:04.488Z,24.11
2016-07-07T12:39:04.697Z,24.22
2016-07-07T12:40:04.442Z,23.67
2016-07-07T12:41:05.589Z,22.85
2016-07-07T12:42:04.545Z,23.21
2016-07-07T12:43:04.599Z,24.3
2016-07-07T12:44:04.435Z,24.34
2016-07-07T12:45:04.576Z,24.97
2016-07-07T12:46:04.513Z,25.08
2016-07-07T12:47:04.659Z,25.32
2016-07-07T12:48:04.561Z,25.2
2016-07-07T12:49:05.755Z,25.19
2016-07-07T12:50:04.537Z,25.22
2016-07-07T12:51:04.509Z,24.94
2016-07-07T12:52:04.508Z,25
2016-07-07T12:53:04.586Z,25
2016-07-07T12:54:04.524Z,25.05
2016-07-07T12:55:04.527Z,25.05
2016-07-07T12:56:04.492Z,24.75
2016-07-07T12:57:04.622Z,24.09
2016-07-07T12:58:04.490Z,23.63
2016-07-07T12:59:04.489Z,23.96
2016-07-07T13:00:04.423Z,23.96
2016-07-07T13:01:04.580Z,23.15